createdAt,value
2022-10-19T00:07:13.794Z,1010.59
2022-10-19T00:17:20.752Z,1010.67
2022-10-19T00:27:26.660Z,1010.57
2022-10-19T00:37:33.314Z,1010.69
2022-10-19T00:47:39.187Z,1010.55
2022-10-19T00:57:46.021Z,1010.38
2022-10-19T01:07:51.717Z,1010.36
2022-10-19T01:17:58.980Z,1010.33
2022-10-19T01:28:04.685Z,1010.45
2022-10-19T01:38:11.977Z,1010.40
2022-10-19T01:48:17.621Z,1010.35
2022-10-19T01:58:24.586Z,1010.33
2022-10-19T02:08:30.494Z,1010.35
2022-10-19T02:18:37.483Z,1010.17
2022-10-19T02:28:42.471Z,1010.28
2022-10-19T02:38:49.739Z,1010.29
2022-10-19T02:48:55.155Z,1010.12
2022-10-19T02:59:02.289Z,1010.01
2022-10-19T03:09:07.431Z,1010.02
2022-10-19T03:19:14.295Z,1009.97
2022-10-19T03:29:19.840Z,1009.85
2022-10-19T03:39:26.839Z,1010.00
2022-10-19T03:49:34.556Z,1010.19
2022-10-19T03:59:44.172Z,1010.34
2022-10-19T04:09:49.489Z,1010.46
2022-10-19T04:19:56.648Z,1010.57
2022-10-19T04:30:02.448Z,1010.57
2022-10-19T04:40:14.845Z,1010.62
2022-10-19T04:50:21.159Z,1010.68
2022-10-19T05:00:27.611Z,1010.58
2022-10-19T05:10:34.058Z,1010.63
2022-10-19T05:20:40.220Z,1010.71
2022-10-19T05:30:48.977Z,1010.62
2022-10-19T05:40:54.994Z,1010.72
2022-10-19T05:51:01.242Z,1010.82
2022-10-19T06:01:07.327Z,1010.84
2022-10-19T06:11:13.634Z,1010.95
2022-10-19T06:21:19.850Z,1011.00
2022-10-19T06:31:26.139Z,1011.14
2022-10-19T06:41:34.377Z,1011.20
2022-10-19T06:51:41.098Z,1011.21
2022-10-19T07:01:47.258Z,1011.22
2022-10-19T07:11:53.636Z,1011.27
2022-10-19T07:21:59.676Z,1011.34
2022-10-19T07:32:05.819Z,1011.36
2022-10-19T07:42:12.255Z,1011.42
2022-10-19T07:52:18.313Z,1011.39
2022-10-19T08:02:30.880Z,1011.43
2022-10-19T08:12:36.875Z,1011.43
2022-10-19T08:22:44.187Z,1011.39
2022-10-19T08:32:50.106Z,1011.50
2022-10-19T08:42:57.854Z,1011.41
2022-10-19T08:53:03.535Z,1011.43
2022-10-19T09:03:11.213Z,1011.38
2022-10-19T09:13:17.265Z,1011.37
2022-10-19T09:23:23.499Z,1011.31
2022-10-19T09:33:29.664Z,1011.27
2022-10-19T09:43:35.914Z,1011.30
2022-10-19T09:53:42.049Z,1011.29
2022-10-19T10:03:50.114Z,1011.37
2022-10-19T10:13:58.039Z,1011.22
2022-10-19T10:24:04.377Z,1011.34
2022-10-19T10:34:22.717Z,1011.30
2022-10-19T10:44:21.776Z,1011.30
2022-10-19T10:54:28.239Z,1011.26
2022-10-19T11:04:34.518Z,1011.20
2022-10-19T11:14:40.654Z,1011.12
2022-10-19T11:24:48.687Z,1010.97
2022-10-19T11:34:55.266Z,1010.86
2022-10-19T11:45:01.516Z,1010.79
2022-10-19T11:55:07.888Z,1010.70
2022-10-19T12:05:14.512Z,1010.47
2022-10-19T12:15:21.224Z,1010.45
2022-10-19T12:25:28.740Z,1010.35
2022-10-19T12:35:35.295Z,1010.30
2022-10-19T12:45:41.930Z,1010.23
2022-10-19T12:55:47.927Z,1010.20
2022-10-19T13:05:53.882Z,1010.23
2022-10-19T13:16:00.153Z,1010.19
2022-10-19T13:26:06.166Z,1010.22
2022-10-19T13:36:12.254Z,1010.23
2022-10-19T13:46:18.217Z,1010.17
2022-10-19T13:56:24.725Z,1010.07
2022-10-19T14:06:30.857Z,1010.00
2022-10-19T14:16:36.732Z,1009.98
2022-10-19T14:26:42.840Z,1009.99
2022-10-19T14:36:49.008Z,1009.79
2022-10-19T14:46:55.383Z,1009.78
2022-10-19T14:57:01.781Z,1009.77
2022-10-19T15:07:08.035Z,1009.63
2022-10-19T15:17:17.666Z,1009.51
2022-10-19T15:27:26.022Z,1009.51
2022-10-19T15:37:31.795Z,1009.52
2022-10-19T15:47:38.241Z,1009.56
2022-10-19T15:57:44.442Z,1009.61
2022-10-19T16:07:50.522Z,1009.56
2022-10-19T16:17:56.681Z,1009.47
2022-10-19T16:28:02.579Z,1009.54
2022-10-19T16:38:08.633Z,1009.67
2022-10-19T16:48:18.899Z,1009.72
2022-10-19T16:58:27.040Z,1009.71
2022-10-19T17:09:14.389Z,1009.69
2022-10-19T17:18:46.652Z,1009.70
2022-10-19T17:28:53.457Z,1009.64
2022-10-19T17:39:00.487Z,1009.67
2022-10-19T17:49:08.284Z,1009.62
2022-10-19T17:59:14.629Z,1009.63
2022-10-19T18:09:22.291Z,1009.60
2022-10-19T18:19:28.061Z,1009.55
2022-10-19T18:29:36.307Z,1009.60
2022-10-19T18:39:42.532Z,1009.54
2022-10-19T18:49:49.880Z,1009.41
2022-10-19T18:59:55.378Z,1009.38
2022-10-19T19:10:03.256Z,1009.40
2022-10-19T19:20:09.079Z,1009.48
2022-10-19T19:30:16.586Z,1009.43
2022-10-19T19:40:22.192Z,1009.36
2022-10-19T19:50:29.886Z,1009.32
2022-10-19T20:00:35.607Z,1009.21
2022-10-19T20:10:43.128Z,1009.19
2022-10-19T20:20:48.783Z,1009.17
2022-10-19T20:30:56.249Z,1009.17
2022-10-19T20:41:04.227Z,1009.19
2022-10-19T20:51:15.157Z,1009.07
2022-10-19T21:01:21.007Z,1008.92
2022-10-19T21:11:27.132Z,1008.83
2022-10-19T21:21:33.591Z,1008.92
2022-10-19T21:31:43.007Z,1008.95
2022-10-19T21:41:51.239Z,1008.83
2022-10-19T21:51:58.911Z,1008.77
2022-10-19T22:02:04.810Z,1008.66
2022-10-19T22:22:21.186Z,1008.49
2022-10-19T22:32:28.481Z,1008.38
2022-10-19T22:42:35.495Z,1008.28
2022-10-19T22:52:42.697Z,1008.01
2022-10-19T23:02:49.683Z,1007.84
2022-10-19T23:12:57.888Z,1007.95
2022-10-19T23:23:04.026Z,1007.76
2022-10-19T23:33:10.365Z,1007.81
2022-10-19T23:43:16.812Z,1007.81
2022-10-19T23:53:22.941Z,1007.79
